Time;durP1;ratioP1;P1;durP2;ratioP2;P2;SDS_P1;SDS_P2;PMS_P1;PMS_P2;Temp;Humidity;BMP_temperature;BMP_pressure;BME280_temperature;BME280_humidity;BME280_pressure;Samples;Min_cycle;Max_cycle;Signal;HPM_P1;HPM_P2
2023/04/27 00:01:01;;;;;;;13.52;5.60;;;8.50;1.00;;;;;;7365168;19;20010;-74
2023/04/27 00:03:31;;;;;;;9.82;6.05;;;8.50;1.00;;;;;;7364856;19;20023;-73
2023/04/27 00:06:04;;;;;;;12.85;7.25;;;8.50;1.00;;;;;;7367259;19;20018;-72
2023/04/27 00:08:34;;;;;;;10.48;6.80;;;8.50;1.00;;;;;;7387283;19;20035;-73
2023/04/27 00:11:04;;;;;;;10.48;6.07;;;8.50;1.00;;;;;;7364536;19;20017;-73
2023/04/27 00:13:34;;;;;;;13.00;6.25;;;8.50;1.00;;;;;;7364006;19;20014;-73
2023/04/27 00:16:04;;;;;;;14.30;7.05;;;8.50;1.00;;;;;;7366956;19;20014;-72
2023/04/27 00:18:35;;;;;;;12.50;7.18;;;8.40;1.00;;;;;;7364951;19;20025;-73
2023/04/27 00:21:08;;;;;;;12.27;6.57;;;8.30;1.00;;;;;;7364039;19;20021;-73
2023/04/27 00:23:37;;;;;;;10.48;6.43;;;8.20;1.00;;;;;;7384817;19;20126;-73
2023/04/27 00:26:07;;;;;;;10.38;6.95;;;8.00;1.00;;;;;;7366919;19;20097;-73
2023/04/27 00:28:37;;;;;;;9.38;6.22;;;8.00;1.00;;;;;;7365344;19;20130;-74
2023/04/27 00:31:07;;;;;;;12.48;6.45;;;7.90;1.00;;;;;;7365148;19;20010;-73
2023/04/27 00:33:37;;;;;;;12.02;6.72;;;7.90;1.00;;;;;;7363869;19;20011;-73
2023/04/27 00:36:11;;;;;;;11.57;6.68;;;7.90;1.00;;;;;;7365636;19;20094;-72
2023/04/27 00:38:40;;;;;;;9.52;6.57;;;7.90;1.00;;;;;;7386208;19;20020;-73
2023/04/27 00:41:10;;;;;;;11.80;6.57;;;7.90;1.00;;;;;;7364487;19;20018;-72
2023/04/27 00:43:44;;;;;;;9.60;6.82;;;7.90;1.00;;;;;;7362509;19;20023;-73
2023/04/27 00:46:15;;;;;;;17.00;6.47;;;7.90;1.00;;;;;;7363633;19;20462;-73
2023/04/27 00:48:46;;;;;;;12.55;7.10;;;7.80;1.00;;;;;;7365027;19;20022;-73
2023/04/27 00:51:19;;;;;;;7.45;6.55;;;7.70;1.00;;;;;;7363817;19;20114;-73
2023/04/27 00:53:49;;;;;;;9.52;6.47;;;7.80;1.00;;;;;;7384204;19;20025;-73
2023/04/27 00:56:19;;;;;;;11.80;6.63;;;7.80;1.00;;;;;;7365448;19;20010;-73
2023/04/27 00:58:48;;;;;;;10.15;6.90;;;7.80;1.00;;;;;;7363764;19;20478;-73
2023/04/27 01:01:19;;;;;;;11.63;7.70;;;7.70;1.00;;;;;;7367847;19;20494;-72
2023/04/27 01:03:49;;;;;;;11.45;6.53;;;7.70;1.00;;;;;;7370222;19;20051;-73
2023/04/27 01:06:22;;;;;;;10.88;6.88;;;7.70;1.00;;;;;;7372537;19;20010;-73
2023/04/27 01:08:52;;;;;;;12.55;7.30;;;7.70;1.00;;;;;;7392002;19;20011;-73
2023/04/27 01:11:22;;;;;;;12.27;7.20;;;7.70;1.00;;;;;;7393608;19;20024;-72
2023/04/27 01:13:52;;;;;;;9.15;7.05;;;7.70;1.00;;;;;;7369793;19;20545;-72
2023/04/27 01:16:22;;;;;;;9.43;6.43;;;7.70;1.00;;;;;;7372665;19;20013;-73
2023/04/27 01:18:52;;;;;;;12.30;7.22;;;7.60;1.00;;;;;;7370519;19;20494;-74
2023/04/27 01:21:25;;;;;;;10.85;6.85;;;7.60;1.00;;;;;;7371347;19;20014;-73
2023/04/27 01:23:57;;;;;;;10.32;7.32;;;7.50;1.00;;;;;;7368067;19;20010;-73
2023/04/27 01:26:27;;;;;;;10.77;7.40;;;7.50;1.00;;;;;;7393213;19;20006;-74
2023/04/27 01:28:57;;;;;;;10.50;7.63;;;7.50;1.00;;;;;;7370335;19;20016;-73
2023/04/27 01:31:27;;;;;;;13.07;8.13;;;7.40;1.00;;;;;;7371478;19;20014;-73
2023/04/27 01:33:57;;;;;;;11.02;7.60;;;7.40;1.00;;;;;;7369579;19;20011;-73
2023/04/27 01:36:27;;;;;;;12.95;8.00;;;7.40;1.00;;;;;;7370969;19;20366;-74
2023/04/27 01:38:59;;;;;;;12.40;8.15;;;7.50;1.00;;;;;;7368002;19;20011;-73
2023/04/27 01:41:30;;;;;;;12.55;8.70;;;7.50;1.00;;;;;;7391820;19;20013;-74
2023/04/27 01:44:00;;;;;;;12.85;8.15;;;7.50;1.00;;;;;;7368684;19;20015;-73
2023/04/27 01:46:30;;;;;;;12.05;8.02;;;7.40;1.00;;;;;;7366593;19;20022;-74
2023/04/27 01:49:00;;;;;;;11.18;8.30;;;7.50;1.00;;;;;;7390001;19;20737;-74
2023/04/27 01:51:31;;;;;;;10.38;7.97;;;7.40;1.00;;;;;;7369987;19;20018;-74
2023/04/27 01:54:04;;;;;;;13.30;8.18;;;7.40;1.00;;;;;;7368495;19;20021;-74
2023/04/27 01:56:34;;;;;;;10.32;8.23;;;7.40;1.00;;;;;;7371268;19;20019;-74
2023/04/27 01:59:04;;;;;;;11.43;8.52;;;7.30;1.00;;;;;;7367733;19;20347;-73
2023/04/27 02:01:34;;;;;;;12.98;7.82;;;7.30;1.00;;;;;;7369744;19;20021;-75
2023/04/27 02:04:03;;;;;;;11.68;7.90;;;7.30;1.00;;;;;;7390332;19;20018;-74
2023/04/27 02:06:34;;;;;;;12.63;7.65;;;7.40;1.00;;;;;;7371050;19;20340;-74
2023/04/27 02:09:06;;;;;;;12.13;7.63;;;7.30;1.00;;;;;;7369118;19;20017;-74
2023/04/27 02:11:36;;;;;;;11.70;7.82;;;7.40;1.00;;;;;;7370033;19;20585;-73
2023/04/27 02:14:06;;;;;;;11.20;7.20;;;7.40;1.00;;;;;;7365137;19;20082;-74
2023/04/27 02:16:36;;;;;;;12.00;8.18;;;7.30;1.00;;;;;;7370742;19;20428;-72
2023/04/27 02:19:06;;;;;;;11.45;7.82;;;7.30;1.00;;;;;;7389147;19;20467;-73
2023/04/27 02:21:36;;;;;;;13.43;8.45;;;7.30;1.00;;;;;;7368798;19;20379;-74
2023/04/27 02:24:10;;;;;;;11.10;7.88;;;7.30;1.00;;;;;;7367337;19;20403;-74
2023/04/27 02:26:40;;;;;;;13.43;8.32;;;7.20;1.00;;;;;;7370513;19;20082;-74
2023/04/27 02:29:11;;;;;;;11.57;7.68;;;7.30;1.00;;;;;;7368494;19;20023;-74
2023/04/27 02:31:41;;;;;;;11.57;7.82;;;7.30;1.00;;;;;;7369260;19;20028;-73
2023/04/27 02:34:12;;;;;;;12.10;7.80;;;7.30;1.80;;;;;;7368320;19;20017;-73
2023/04/27 02:36:42;;;;;;;12.77;7.93;;;7.30;2.30;;;;;;7390755;19;20573;-73
2023/04/27 02:39:14;;;;;;;9.93;7.75;;;7.30;2.90;;;;;;7365604;19;20025;-73
2023/04/27 02:41:44;;;;;;;13.80;8.27;;;7.40;2.30;;;;;;7369275;19;20094;-73
2023/04/27 02:44:14;;;;;;;11.40;7.55;;;7.30;2.20;;;;;;7368621;19;20010;-73
2023/04/27 02:46:44;;;;;;;14.35;7.80;;;7.30;3.10;;;;;;7368920;19;20015;-73
2023/04/27 02:49:14;;;;;;;12.65;8.27;;;7.40;3.50;;;;;;7367399;19;20010;-73
2023/04/27 02:51:45;;;;;;;12.50;8.50;;;7.30;2.80;;;;;;7390249;19;20026;-74
2023/04/27 02:54:17;;;;;;;10.18;7.40;;;7.20;3.50;;;;;;7368269;19;20003;-72
2023/04/27 02:56:47;;;;;;;12.25;7.40;;;7.00;3.10;;;;;;7367757;19;20078;-72
2023/04/27 02:59:17;;;;;;;12.35;8.38;;;7.10;5.00;;;;;;7366646;19;20013;-73
2023/04/27 03:01:47;;;;;;;12.30;8.70;;;7.00;3.20;;;;;;7366153;19;20069;-72
2023/04/27 03:04:17;;;;;;;10.07;7.80;;;7.00;3.00;;;;;;7368556;19;20086;-73
2023/04/27 03:06:47;;;;;;;15.85;8.55;;;7.10;3.80;;;;;;7389468;19;20029;-73
2023/04/27 03:09:20;;;;;;;11.75;8.38;;;7.10;4.00;;;;;;7366407;19;20098;-73
2023/04/27 03:11:49;;;;;;;11.48;7.50;;;7.20;3.90;;;;;;7365208;19;20010;-72
2023/04/27 03:14:19;;;;;;;10.77;7.55;;;7.10;2.80;;;;;;7366649;19;20424;-73
2023/04/27 03:16:49;;;;;;;11.70;8.38;;;7.20;3.60;;;;;;7367370;19;20536;-73
2023/04/27 03:19:19;;;;;;;10.77;8.13;;;7.20;3.40;;;;;;7366674;19;20015;-73
2023/04/27 03:21:49;;;;;;;12.75;7.63;;;7.10;3.40;;;;;;7389346;19;20089;-72
2023/04/27 03:24:24;;;;;;;9.50;7.15;;;7.10;2.50;;;;;;7366660;19;20007;-74
2023/04/27 03:26:54;;;;;;;;;;;7.10;3.00;;;;;;7367156;19;20512;-73
2023/04/27 03:29:23;;;;;;;11.57;8.07;;;7.10;1.90;;;;;;7366212;19;19920;-72
2023/04/27 03:31:53;;;;;;;15.07;8.63;;;7.10;2.30;;;;;;7367142;19;20077;-71
2023/04/27 03:34:23;;;;;;;11.63;8.02;;;7.20;3.10;;;;;;7366398;19;20030;-74
2023/04/27 03:36:53;;;;;;;11.82;8.02;;;7.20;3.10;;;;;;7389118;19;20111;-73
2023/04/27 03:39:26;;;;;;;10.82;8.20;;;7.30;2.50;;;;;;7367283;19;20025;-73
2023/04/27 03:41:56;;;;;;;11.65;7.97;;;7.30;1.90;;;;;;7365940;19;20422;-73
2023/04/27 03:44:26;;;;;;;12.95;7.60;;;7.30;1.80;;;;;;7368687;19;20500;-73
2023/04/27 03:46:56;;;;;;;9.10;7.78;;;7.20;1.30;;;;;;7368185;19;20022;-71
2023/04/27 03:49:26;;;;;;;10.95;7.40;;;7.30;1.90;;;;;;7366933;19;20050;-73
2023/04/27 03:51:56;;;;;;;10.82;7.35;;;7.20;1.00;;;;;;7385979;19;20362;-72
2023/04/27 03:54:29;;;;;;;11.75;7.68;;;7.10;1.70;;;;;;7366121;19;20013;-72
2023/04/27 03:57:01;;;;;;;10.35;7.35;;;7.10;1.00;;;;;;7366763;19;20015;-73
2023/04/27 03:59:31;;;;;;;10.02;7.10;;;7.20;1.50;;;;;;7364759;19;20017;-73
2023/04/27 04:02:02;;;;;;;11.20;7.57;;;7.20;1.30;;;;;;7365067;19;20377;-73
2023/04/27 04:04:32;;;;;;;13.63;6.93;;;7.30;1.60;;;;;;7365886;19;20422;-73
2023/04/27 04:07:02;;;;;;;9.98;7.40;;;7.30;1.10;;;;;;7389325;19;20534;-72
2023/04/27 04:09:35;;;;;;;11.13;7.20;;;7.30;1.10;;;;;;7364494;19;20022;-73
2023/04/27 04:12:05;;;;;;;10.73;7.20;;;7.30;1.00;;;;;;7364658;19;20402;-73
2023/04/27 04:14:35;;;;;;;12.00;7.22;;;7.30;1.90;;;;;;7365072;19;20015;-73
2023/04/27 04:17:05;;;;;;;11.32;7.20;;;7.30;1.60;;;;;;7366804;19;20014;-74
2023/04/27 04:19:35;;;;;;;8.82;6.60;;;7.30;1.40;;;;;;7364891;19;20011;-73
2023/04/27 04:22:05;;;;;;;8.68;6.60;;;7.30;1.00;;;;;;7387297;19;20488;-73
2023/04/27 04:24:39;;;;;;;12.40;7.85;;;7.10;1.00;;;;;;7366166;19;20025;-73
2023/04/27 04:27:08;;;;;;;9.70;7.07;;;7.20;2.30;;;;;;7365671;19;20014;-74
2023/04/27 04:29:39;;;;;;;10.38;7.13;;;7.30;1.00;;;;;;7364932;19;20632;-72
2023/04/27 04:32:11;;;;;;;11.02;6.97;;;7.30;1.00;;;;;;7365322;19;20014;-73
2023/04/27 04:34:41;;;;;;;11.20;7.30;;;7.30;1.00;;;;;;7364698;19;20077;-72
2023/04/27 04:37:11;;;;;;;11.18;7.20;;;7.30;1.00;;;;;;7378862;19;20022;-73
2023/04/27 04:39:44;;;;;;;9.20;6.53;;;7.40;1.00;;;;;;7390998;19;20057;-73
2023/04/27 04:42:14;;;;;;;11.15;7.55;;;7.30;1.00;;;;;;7371490;19;20078;-73
2023/04/27 04:44:44;;;;;;;11.23;7.30;;;7.50;1.00;;;;;;7372677;19;20385;-74
2023/04/27 04:47:14;;;;;;;7.85;6.82;;;7.50;1.00;;;;;;7372814;19;20002;-73
2023/04/27 04:49:44;;;;;;;9.48;7.18;;;7.40;1.00;;;;;;7370014;19;20014;-73
2023/04/27 04:52:14;;;;;;;14.10;8.32;;;7.40;1.00;;;;;;7371229;19;20019;-73
2023/04/27 04:54:46;;;;;;;10.82;8.07;;;7.40;1.00;;;;;;7393436;19;20016;-73
2023/04/27 04:57:16;;;;;;;9.45;7.15;;;7.30;1.00;;;;;;7373211;19;20030;-73
2023/04/27 04:59:46;;;;;;;10.88;7.25;;;7.40;1.00;;;;;;7369658;19;20014;-74
2023/04/27 05:02:16;;;;;;;8.75;6.85;;;7.50;1.00;;;;;;7371918;19;20470;-73
2023/04/27 05:04:46;;;;;;;9.88;6.80;;;7.50;1.00;;;;;;7371265;19;20053;-73
2023/04/27 05:07:16;;;;;;;9.50;6.15;;;7.40;1.00;;;;;;7372919;19;20111;-73
2023/04/27 05:09:56;;;;;;;12.90;6.63;;;7.60;1.00;;;;;;7390373;19;20014;-73
2023/04/27 05:12:26;;;;;;;10.80;6.57;;;7.60;1.00;;;;;;7370654;19;20013;-73
2023/04/27 05:14:55;;;;;;;13.48;6.10;;;7.80;1.00;;;;;;7370826;19;20014;-73
2023/04/27 05:17:25;;;;;;;10.57;6.70;;;7.90;1.00;;;;;;7372438;19;20513;-73
2023/04/27 05:19:55;;;;;;;13.63;7.13;;;7.90;1.00;;;;;;7368751;19;20074;-75
2023/04/27 05:22:25;;;;;;;15.30;7.07;;;8.00;1.00;;;;;;7370142;19;20014;-73
2023/04/27 05:24:58;;;;;;;10.40;7.32;;;8.20;1.00;;;;;;7391768;19;20355;-74
2023/04/27 05:27:28;;;;;;;12.65;8.05;;;8.30;1.00;;;;;;7372020;19;20025;-72
2023/04/27 05:29:58;;;;;;;11.98;8.05;;;8.50;1.00;;;;;;7365139;19;20081;-74
2023/04/27 05:32:29;;;;;;;11.48;7.60;;;8.50;1.00;;;;;;7370250;19;20006;-73
2023/04/27 05:34:59;;;;;;;14.85;7.78;;;8.50;1.00;;;;;;7370082;19;20018;-74
2023/04/27 05:37:29;;;;;;;12.35;7.10;;;8.60;1.00;;;;;;7371260;19;20018;-73
2023/04/27 05:40:02;;;;;;;12.95;7.88;;;8.70;1.00;;;;;;7389989;19;20018;-74
2023/04/27 05:42:33;;;;;;;14.27;7.32;;;8.80;1.00;;;;;;7369134;19;20014;-74
2023/04/27 05:45:03;;;;;;;13.43;7.22;;;8.80;1.00;;;;;;7369779;19;20063;-73
2023/04/27 05:47:34;;;;;;;11.07;6.65;;;8.80;1.00;;;;;;7369825;19;20010;-74
2023/04/27 05:50:03;;;;;;;11.18;6.25;;;8.80;1.00;;;;;;7368047;19;20015;-74
2023/04/27 05:52:33;;;;;;;16.52;7.07;;;8.80;1.00;;;;;;7369030;19;20121;-74
2023/04/27 05:55:09;;;;;;;16.30;7.82;;;8.90;1.00;;;;;;7391172;19;20062;-74
2023/04/27 05:57:40;;;;;;;11.27;6.85;;;9.00;1.00;;;;;;7370443;19;20089;-74
2023/04/27 06:00:12;;;;;;;9.25;6.55;;;9.10;1.00;;;;;;7367146;19;20010;-73
2023/04/27 06:02:42;;;;;;;9.15;7.05;;;9.20;1.00;;;;;;7366824;19;20010;-74
2023/04/27 06:05:12;;;;;;;10.90;6.80;;;9.00;1.00;;;;;;7369849;19;20506;-73
2023/04/27 06:07:42;;;;;;;15.55;6.38;;;9.20;1.00;;;;;;7369143;19;20022;-74
2023/04/27 06:10:15;;;;;;;10.45;5.93;;;9.30;1.00;;;;;;7367577;19;20471;-72
2023/04/27 06:12:45;;;;;;;9.98;6.80;;;9.40;1.00;;;;;;7389044;19;20383;-75
2023/04/27 06:15:15;;;;;;;8.73;5.68;;;9.50;1.00;;;;;;7369711;19;20448;-75
2023/04/27 06:17:46;;;;;;;8.10;5.38;;;9.70;1.00;;;;;;7369437;19;20027;-72
2023/04/27 06:20:16;;;;;;;10.98;6.13;;;9.60;1.00;;;;;;7368204;19;20109;-74
2023/04/27 06:22:46;;;;;;;16.75;6.15;;;9.60;1.00;;;;;;7367021;19;20093;-73
2023/04/27 06:25:18;;;;;;;11.27;5.35;;;9.80;1.00;;;;;;7369805;19;20752;-72
2023/04/27 06:27:48;;;;;;;9.07;5.45;;;9.90;1.00;;;;;;7391406;19;20478;-74
2023/04/27 06:30:18;;;;;;;8.82;5.53;;;10.10;1.00;;;;;;7365448;19;20016;-73
2023/04/27 06:32:48;;;;;;;14.10;6.65;;;10.30;1.00;;;;;;7367376;19;20021;-74
2023/04/27 06:35:19;;;;;;;10.38;6.13;;;10.30;1.00;;;;;;7368190;19;20483;-73
2023/04/27 06:37:49;;;;;;;11.48;5.93;;;10.20;1.00;;;;;;7369299;19;20094;-73
2023/04/27 06:40:21;;;;;;;9.55;5.60;;;10.50;1.00;;;;;;7365670;19;20339;-73
2023/04/27 06:42:51;;;;;;;11.52;5.90;;;10.50;1.00;;;;;;7387507;19;20021;-72
2023/04/27 06:45:21;;;;;;;9.48;6.45;;;10.50;1.00;;;;;;7368205;19;20015;-73
2023/04/27 06:47:51;;;;;;;9.48;5.90;;;10.50;1.00;;;;;;7370159;19;20011;-73
2023/04/27 06:50:21;;;;;;;10.60;6.07;;;10.70;1.00;;;;;;7366216;19;20806;-73
2023/04/27 06:52:51;;;;;;;8.52;6.22;;;10.50;1.00;;;;;;7366430;19;20010;-73
2023/04/27 06:55:24;;;;;;;15.93;9.88;;;10.70;1.00;;;;;;7367616;19;20010;-73
2023/04/27 06:57:54;;;;;;;11.60;7.18;;;10.90;1.00;;;;;;7390530;19;20459;-74
2023/04/27 07:00:24;;;;;;;12.00;6.10;;;10.90;1.00;;;;;;7365075;19;20018;-74
2023/04/27 07:02:54;;;;;;;10.55;6.15;;;11.20;1.00;;;;;;7367060;19;20010;-74
2023/04/27 07:05:24;;;;;;;9.90;6.18;;;11.10;1.00;;;;;;7365860;19;20010;-74
2023/04/27 07:07:54;;;;;;;12.60;7.05;;;11.10;1.00;;;;;;7367906;19;20011;-74
2023/04/27 07:10:27;;;;;;;14.57;6.50;;;11.20;1.00;;;;;;7366456;19;20010;-74
2023/04/27 07:12:57;;;;;;;10.07;6.30;;;11.40;1.00;;;;;;7388449;19;20017;-73
2023/04/27 07:15:27;;;;;;;13.52;7.40;;;11.60;1.00;;;;;;7365754;19;20060;-75
2023/04/27 07:17:57;;;;;;;10.50;5.97;;;11.60;1.00;;;;;;7367564;19;20010;-74
2023/04/27 07:20:27;;;;;;;10.43;6.18;;;11.70;1.00;;;;;;7366418;19;20047;-75
2023/04/27 07:22:57;;;;;;;10.77;6.95;;;11.60;1.00;;;;;;7366603;19;20029;-73
2023/04/27 07:25:30;;;;;;;15.80;6.93;;;11.90;1.00;;;;;;7366558;19;20031;-74
2023/04/27 07:27:59;;;;;;;15.43;6.53;;;11.70;1.00;;;;;;7389105;19;20014;-73
2023/04/27 07:30:29;;;;;;;11.57;6.40;;;11.80;1.00;;;;;;7364992;19;20010;-74
2023/04/27 07:32:59;;;;;;;11.60;6.78;;;12.30;1.00;;;;;;7365711;19;20536;-74
2023/04/27 07:35:30;;;;;;;8.02;5.55;;;12.60;1.00;;;;;;7364796;19;20022;-72
2023/04/27 07:38:02;;;;;;;11.65;6.05;;;12.20;1.00;;;;;;7359015;19;20348;-73
2023/04/27 07:40:35;;;;;;;11.43;5.78;;;12.40;1.00;;;;;;7364348;19;20022;-73
2023/04/27 07:43:05;;;;;;;9.45;6.50;;;12.70;1.00;;;;;;7386380;19;20081;-74
2023/04/27 07:45:37;;;;;;;9.90;6.50;;;12.90;1.00;;;;;;7366066;19;20014;-73
2023/04/27 07:48:08;;;;;;;9.27;6.55;;;13.10;1.00;;;;;;7366664;19;20014;-74
2023/04/27 07:50:38;;;;;;;10.05;6.35;;;12.50;1.00;;;;;;7363755;19;20526;-73
2023/04/27 07:53:08;;;;;;;10.43;6.60;;;12.70;1.00;;;;;;7365102;19;20007;-75
2023/04/27 07:55:42;;;;;;;7.80;6.18;;;12.60;1.00;;;;;;7363567;19;20037;-74
2023/04/27 07:58:12;;;;;;;;;;;13.00;1.00;;;;;;7367175;19;20048;-74
2023/04/27 08:00:42;;;;;;;11.98;6.97;;;12.90;1.00;;;;;;7384265;19;19933;-72
2023/04/27 08:03:12;;;;;;;15.23;6.80;;;13.00;1.00;;;;;;7364698;19;20013;-75
2023/04/27 08:05:42;;;;;;;10.02;6.28;;;13.40;1.00;;;;;;7364905;19;20006;-73
2023/04/27 08:08:13;;;;;;;10.80;6.38;;;13.40;1.00;;;;;;7365604;19;20040;-74
2023/04/27 08:10:46;;;;;;;12.70;6.45;;;13.30;1.00;;;;;;7363644;19;20010;-75
2023/04/27 08:13:16;;;;;;;11.25;6.45;;;13.40;1.00;;;;;;7372109;19;20006;-73
2023/04/27 08:15:45;;;;;;;11.57;6.28;;;13.70;1.00;;;;;;7393727;19;20139;-75
2023/04/27 08:18:16;;;;;;;9.80;5.50;;;13.90;1.00;;;;;;7371568;19;20018;-74
2023/04/27 08:20:46;;;;;;;9.18;5.97;;;13.80;1.00;;;;;;7369924;19;20033;-74
2023/04/27 08:23:17;;;;;;;9.20;5.40;;;13.60;1.00;;;;;;7368247;19;21498;-74
2023/04/27 08:25:50;;;;;;;11.68;5.88;;;14.00;1.00;;;;;;7373237;19;20018;-74
2023/04/27 08:28:20;;;;;;;15.05;7.50;;;13.90;1.00;;;;;;7372165;19;20374;-74
2023/04/27 08:30:50;;;;;;;12.35;6.05;;;14.20;1.00;;;;;;7390988;19;20022;-74
2023/04/27 08:33:20;;;;;;;8.30;5.32;;;14.00;1.00;;;;;;7369160;19;20399;-75
2023/04/27 08:35:50;;;;;;;8.75;5.22;;;14.20;1.00;;;;;;7373154;19;20482;-74
2023/04/27 08:38:20;;;;;;;9.27;5.25;;;14.20;1.00;;;;;;7370857;19;20018;-75
2023/04/27 08:40:56;;;;;;;8.68;5.45;;;14.00;1.00;;;;;;7369728;19;20022;-73
2023/04/27 08:43:37;;;;;;;8.93;5.22;;;13.80;1.00;;;;;;7368680;19;20002;-73
2023/04/27 08:46:07;;;;;;;10.23;5.20;;;13.80;1.00;;;;;;7395104;19;20018;-75
2023/04/27 08:48:37;;;;;;;9.55;5.38;;;14.30;1.00;;;;;;7370500;19;20022;-75
2023/04/27 08:51:12;;;;;;;8.18;5.40;;;14.70;1.00;;;;;;7369204;19;20017;-73
2023/04/27 08:53:49;;;;;;;6.68;4.80;;;14.40;1.00;;;;;;7370577;19;20029;-74
2023/04/27 08:56:23;;;;;;;7.93;4.85;;;14.30;1.00;;;;;;7371948;19;20007;-74
2023/04/27 08:58:54;;;;;;;10.00;4.97;;;13.90;1.00;;;;;;7370443;19;20010;-73
2023/04/27 09:01:26;;;;;;;9.82;4.97;;;14.10;1.00;;;;;;7369704;19;20496;-74
2023/04/27 09:03:58;;;;;;;11.00;5.40;;;14.50;1.00;;;;;;7392359;19;20006;-75
2023/04/27 09:06:33;;;;;;;5.95;4.70;;;14.90;1.00;;;;;;7371927;19;20014;-73
2023/04/27 09:09:03;;;;;;;8.65;4.35;;;14.50;1.00;;;;;;7369663;19;20085;-74
2023/04/27 09:11:37;;;;;;;7.70;4.50;;;14.60;1.00;;;;;;7369415;19;20015;-75
2023/04/27 09:14:18;;;;;;;7.50;4.63;;;14.20;1.00;;;;;;7370719;19;20010;-75
2023/04/27 09:16:57;;;;;;;9.82;4.28;;;14.20;1.00;;;;;;7371233;19;20472;-74
2023/04/27 09:19:28;;;;;;;8.35;4.20;;;14.50;1.00;;;;;;7368220;19;20096;-74
2023/04/27 09:22:09;;;;;;;7.18;3.80;;;15.20;1.00;;;;;;7389492;19;20018;-74
2023/04/27 09:24:39;;;;;;;8.82;4.25;;;15.40;1.00;;;;;;7371250;19;20380;-74
2023/04/27 09:27:22;;;;;;;10.55;5.72;;;15.20;1.00;;;;;;7370245;19;20011;-73
2023/04/27 09:29:52;;;;;;;7.25;5.25;;;15.00;1.00;;;;;;7367194;19;20014;-74
2023/04/27 09:32:22;;;;;;;5.53;4.20;;;14.90;1.00;;;;;;7369040;19;20015;-74
2023/04/27 09:34:52;;;;;;;8.85;4.50;;;14.70;1.00;;;;;;7371097;19;20021;-74
2023/04/27 09:37:22;;;;;;;7.72;5.18;;;14.40;1.00;;;;;;7371926;19;20015;-75
2023/04/27 09:39:52;;;;;;;5.63;4.78;;;14.80;1.00;;;;;;7388776;19;20014;-73
2023/04/27 09:42:25;;;;;;;7.13;4.82;;;15.00;1.00;;;;;;7366878;19;20584;-75
2023/04/27 09:44:56;;;;;;;7.45;5.38;;;14.90;1.00;;;;;;7368664;19;20006;-75
2023/04/27 09:47:27;;;;;;;14.07;5.60;;;14.70;1.00;;;;;;7370106;19;20077;-75
2023/04/27 09:49:57;;;;;;;7.07;5.03;;;14.50;1.00;;;;;;7368171;19;20015;-73
2023/04/27 09:52:27;;;;;;;8.95;4.50;;;14.50;1.00;;;;;;7368672;19;20014;-75
2023/04/27 09:54:59;;;;;;;10.52;5.10;;;15.30;1.00;;;;;;7390945;19;20018;-75
2023/04/27 09:57:38;;;;;;;8.82;5.28;;;15.40;1.00;;;;;;7369441;19;20474;-73
2023/04/27 10:00:24;;;;;;;7.75;5.65;;;15.10;1.00;;;;;;7366350;19;20015;-75
2023/04/27 10:03:06;;;;;;;8.57;5.30;;;15.10;1.00;;;;;;7365941;19;20006;-74
2023/04/27 10:05:52;;;;;;;11.63;5.15;;;15.10;1.00;;;;;;7369084;19;20018;-75
2023/04/27 10:08:22;;;;;;;11.57;5.00;;;15.10;1.00;;;;;;7368340;19;20367;-74
2023/04/27 10:10:54;;;;;;;10.18;5.22;;;15.50;1.00;;;;;;7364739;19;20010;-75
2023/04/27 10:13:28;;;;;;;8.10;4.90;;;15.40;1.00;;;;;;7367733;19;20750;-74
2023/04/27 10:15:58;;;;;;;10.02;5.22;;;15.60;1.00;;;;;;7390907;19;20018;-73
2023/04/27 10:18:30;;;;;;;9.07;4.85;;;15.50;1.00;;;;;;7369158;19;20017;-75
2023/04/27 10:21:11;;;;;;;7.95;5.10;;;15.70;1.00;;;;;;7364942;19;20490;-75
2023/04/27 10:23:49;;;;;;;9.32;4.50;;;15.70;1.00;;;;;;7367406;19;20081;-75
2023/04/27 10:26:25;;;;;;;7.43;4.13;;;15.70;1.00;;;;;;7367093;19;20010;-74
2023/04/27 10:29:07;;;;;;;9.15;5.40;;;15.60;1.00;;;;;;7366960;19;20070;-74
2023/04/27 10:31:44;;;;;;;9.77;4.78;;;15.70;1.00;;;;;;7365600;19;20018;-74
2023/04/27 10:34:20;;;;;;;7.18;4.75;;;16.00;1.00;;;;;;7365891;19;20018;-74
2023/04/27 10:36:50;;;;;;;7.25;4.88;;;16.00;1.00;;;;;;7391221;19;20033;-76
2023/04/27 10:39:23;;;;;;;7.88;4.93;;;15.80;1.00;;;;;;7367184;19;20093;-72
2023/04/27 10:42:13;;;;;;;8.80;5.15;;;16.20;1.00;;;;;;7365274;19;20025;-75
2023/04/27 10:44:57;;;;;;;8.50;4.55;;;16.70;1.00;;;;;;7366983;19;20010;-73
2023/04/27 10:47:37;;;;;;;;;;;16.70;1.00;;;;;;7369314;19;20014;-75
2023/04/27 10:50:10;;;;;;;11.95;4.85;;;17.20;1.00;;;;;;7365799;19;20339;-74
2023/04/27 10:52:45;;;;;;;9.07;5.13;;;16.80;1.00;;;;;;7364818;19;20493;-74
2023/04/27 10:55:16;;;;;;;9.57;4.90;;;16.50;1.00;;;;;;7366159;19;20487;-74
2023/04/27 10:57:51;;;;;;;10.13;4.70;;;16.40;1.00;;;;;;7389720;19;20370;-75
2023/04/27 11:00:28;;;;;;;10.48;4.30;;;16.60;1.00;;;;;;7364313;19;20011;-74
2023/04/27 11:03:00;;;;;;;5.88;3.90;;;16.90;1.00;;;;;;7365348;19;20010;-75
2023/04/27 11:05:32;;;;;;;8.15;4.93;;;17.10;1.00;;;;;;7366053;19;20093;-74
2023/04/27 11:08:08;;;;;;;6.60;4.97;;;16.70;1.00;;;;;;7367877;19;20015;-74
2023/04/27 11:10:41;;;;;;;7.45;4.20;;;16.70;1.00;;;;;;7362810;19;20014;-75
2023/04/27 11:13:13;;;;;;;8.13;4.47;;;16.20;1.00;;;;;;7378128;19;20351;-75
2023/04/27 11:15:48;;;;;;;9.07;4.50;;;16.40;1.00;;;;;;7388864;19;20082;-74
2023/04/27 11:18:19;;;;;;;9.18;4.45;;;16.00;1.00;;;;;;7364943;19;20014;-74
2023/04/27 11:20:51;;;;;;;11.70;4.65;;;15.90;1.00;;;;;;7362055;19;20021;-75
2023/04/27 11:23:26;;;;;;;9.13;4.20;;;15.90;1.00;;;;;;7363295;19;20037;-73
2023/04/27 11:25:57;;;;;;;8.52;4.25;;;15.90;1.00;;;;;;7366000;19;20006;-74
2023/04/27 11:28:27;;;;;;;6.90;4.07;;;15.70;1.00;;;;;;7367295;19;20022;-74
2023/04/27 11:31:01;;;;;;;12.65;4.43;;;15.70;1.00;;;;;;7384590;19;20018;-73
2023/04/27 11:33:31;;;;;;;6.85;3.75;;;16.40;1.00;;;;;;7364875;19;20015;-73
2023/04/27 11:36:01;;;;;;;9.15;4.90;;;17.10;1.00;;;;;;7365980;19;20011;-73
2023/04/27 11:38:35;;;;;;;5.50;4.13;;;16.50;1.00;;;;;;7365771;19;20011;-73
2023/04/27 11:41:08;;;;;;;6.28;4.53;;;16.60;1.00;;;;;;7362700;19;20006;-74
2023/04/27 11:43:42;;;;;;;9.23;4.00;;;17.20;1.00;;;;;;7364729;19;20085;-73
2023/04/27 11:46:14;;;;;;;9.07;4.82;;;16.50;1.00;;;;;;7372642;19;20007;-73
2023/04/27 11:48:44;;;;;;;8.80;4.53;;;17.20;1.00;;;;;;7387398;19;20017;-74
2023/04/27 11:51:14;;;;;;;8.55;4.45;;;17.10;1.00;;;;;;7362913;19;20081;-73
2023/04/27 11:53:51;;;;;;;6.93;4.30;;;17.00;1.00;;;;;;7364350;19;20489;-74
2023/04/27 11:56:21;;;;;;;9.48;4.97;;;16.50;1.00;;;;;;7366503;19;20025;-74
2023/04/27 11:58:51;;;;;;;7.90;4.88;;;16.40;1.00;;;;;;7364693;19;20183;-73
2023/04/27 12:01:23;;;;;;;8.90;4.70;;;16.50;1.00;;;;;;7364537;19;20022;-74
2023/04/27 12:04:06;;;;;;;6.68;5.15;;;16.70;1.00;;;;;;7385425;19;20015;-74
2023/04/27 12:06:37;;;;;;;8.60;4.53;;;16.50;1.00;;;;;;7366541;19;20010;-74
2023/04/27 12:09:07;;;;;;;8.25;4.10;;;16.70;1.00;;;;;;7364960;19;20027;-74
2023/04/27 12:11:37;;;;;;;8.15;4.97;;;17.00;1.00;;;;;;7361863;19;20011;-74
2023/04/27 12:14:07;;;;;;;7.25;4.57;;;16.90;1.00;;;;;;7363561;19;20484;-73
2023/04/27 12:16:39;;;;;;;7.90;4.35;;;16.70;1.00;;;;;;7365257;19;20014;-74
2023/04/27 12:19:09;;;;;;;9.77;4.32;;;17.00;1.00;;;;;;7383768;19;20025;-74
2023/04/27 12:21:39;;;;;;;12.48;4.47;;;17.40;1.00;;;;;;7363800;19;20010;-74
2023/04/27 12:24:10;;;;;;;7.22;3.53;;;18.10;1.00;;;;;;7361378;19;20007;-74
2023/04/27 12:26:41;;;;;;;6.32;3.90;;;18.20;1.00;;;;;;7365047;19;20370;-74
2023/04/27 12:29:11;;;;;;;8.23;4.07;;;18.40;1.00;;;;;;7364141;19;20026;-74
2023/04/27 12:31:43;;;;;;;6.68;3.83;;;18.10;1.00;;;;;;7361896;19;20050;-72
2023/04/27 12:34:13;;;;;;;6.88;3.60;;;18.10;1.00;;;;;;7362655;19;20455;-73
2023/04/27 12:36:44;;;;;;;9.82;3.80;;;17.70;1.00;;;;;;7388005;19;20014;-73
2023/04/27 12:39:16;;;;;;;5.72;3.25;;;17.50;1.00;;;;;;7363118;19;20536;-74
2023/04/27 12:41:47;;;;;;;7.85;4.03;;;16.60;1.00;;;;;;7363534;19;20090;-74
2023/04/27 12:44:18;;;;;;;6.15;3.33;;;17.40;1.00;;;;;;7362837;19;20067;-74
2023/04/27 12:46:51;;;;;;;6.45;3.75;;;18.20;1.00;;;;;;7362631;19;20011;-75
2023/04/27 12:49:21;;;;;;;5.10;2.90;;;17.70;1.00;;;;;;7363021;19;20470;-73
2023/04/27 12:51:51;;;;;;;4.32;3.22;;;17.50;1.00;;;;;;7384523;19;20014;-74
2023/04/27 12:54:21;;;;;;;6.85;3.55;;;17.50;1.00;;;;;;7359439;19;20015;-75
2023/04/27 12:56:51;;;;;;;6.50;3.45;;;17.50;1.00;;;;;;7364217;19;20010;-74
2023/04/27 12:59:21;;;;;;;7.07;3.47;;;17.70;1.00;;;;;;7366589;19;20510;-74
2023/04/27 13:01:54;;;;;;;9.23;3.65;;;18.00;1.00;;;;;;7365850;19;20655;-75
2023/04/27 13:04:24;;;;;;;5.22;2.80;;;17.60;1.00;;;;;;7368777;19;20017;-72
2023/04/27 13:06:54;;;;;;;6.13;3.00;;;17.60;1.00;;;;;;7389138;19;20019;-73
2023/04/27 13:09:24;;;;;;;6.07;3.05;;;18.20;1.00;;;;;;7364899;19;20466;-73
2023/04/27 13:11:54;;;;;;;8.68;3.10;;;17.90;1.00;;;;;;7366748;19;20015;-74
2023/04/27 13:14:24;;;;;;;10.63;3.75;;;18.10;1.00;;;;;;7367824;19;20029;-75
2023/04/27 13:16:56;;;;;;;5.95;3.20;;;18.70;1.00;;;;;;7367140;19;20103;-74
2023/04/27 13:19:26;;;;;;;5.93;3.33;;;18.80;1.00;;;;;;7368607;19;20018;-75